sensor_id;sensor_type;location;lat;lon;timestamp;temperature;humidity
9808;DHT22;4943;52.550;13.462;2023-02-01T00:00:45;6.40;99.90
9808;DHT22;4943;52.550;13.462;2023-02-01T00:03:13;6.30;99.90
9808;DHT22;4943;52.550;13.462;2023-02-01T00:05:41;6.20;99.90
9808;DHT22;4943;52.550;13.462;2023-02-01T00:08:09;6.30;99.90
9808;DHT22;4943;52.550;13.462;2023-02-01T00:10:37;6.30;99.90
9808;DHT22;4943;52.550;13.462;2023-02-01T00:13:05;6.20;99.90
9808;DHT22;4943;52.550;13.462;2023-02-01T00:15:33;6.20;99.90
9808;DHT22;4943;52.550;13.462;2023-02-01T00:18:02;6.20;99.90
9808;DHT22;4943;52.550;13.462;2023-02-01T00:20:30;6.10;99.90
9808;DHT22;4943;52.550;13.462;2023-02-01T00:22:58;6.10;99.90
9808;DHT22;4943;52.550;13.462;2023-02-01T00:25:26;6.10;99.90
9808;DHT22;4943;52.550;13.462;2023-02-01T00:27:54;6.10;99.90
9808;DHT22;4943;52.550;13.462;2023-02-01T00:30:25;6.10;99.90
9808;DHT22;4943;52.550;13.462;2023-02-01T00:32:53;6.10;99.90
9808;DHT22;4943;52.550;13.462;2023-02-01T00:35:22;6.10;99.90
9808;DHT22;4943;52.550;13.462;2023-02-01T00:37:50;6.10;99.90
9808;DHT22;4943;52.550;13.462;2023-02-01T00:40:18;6.10;99.90
9808;DHT22;4943;52.550;13.462;2023-02-01T00:42:47;6.10;99.90
9808;DHT22;4943;52.550;13.462;2023-02-01T00:45:15;6.10;99.90
9808;DHT22;4943;52.550;13.462;2023-02-01T00:47:43;6.10;99.90
9808;DHT22;4943;52.550;13.462;2023-02-01T00:50:11;6.10;99.90
9808;DHT22;4943;52.550;13.462;2023-02-01T00:52:40;6.10;99.90
9808;DHT22;4943;52.550;13.462;2023-02-01T00:55:09;6.10;99.90
9808;DHT22;4943;52.550;13.462;2023-02-01T00:57:36;6.20;99.90
9808;DHT22;4943;52.550;13.462;2023-02-01T01:00:05;6.20;99.90
9808;DHT22;4943;52.550;13.462;2023-02-01T01:02:34;6.30;99.90
9808;DHT22;4943;52.550;13.462;2023-02-01T01:05:02;6.40;99.90
9808;DHT22;4943;52.550;13.462;2023-02-01T01:07:30;6.40;99.90
9808;DHT22;4943;52.550;13.462;2023-02-01T01:09:59;6.40;99.90
9808;DHT22;4943;52.550;13.462;2023-02-01T01:12:27;6.40;99.90
9808;DHT22;4943;52.550;13.462;2023-02-01T01:14:55;6.40;99.90
9808;DHT22;4943;52.550;13.462;2023-02-01T01:17:23;6.40;99.90
9808;DHT22;4943;52.550;13.462;2023-02-01T01:19:51;6.40;99.90
9808;DHT22;4943;52.550;13.462;2023-02-01T01:22:19;6.40;99.90
9808;DHT22;4943;52.550;13.462;2023-02-01T01:24:47;6.40;99.90
9808;DHT22;4943;52.550;13.462;2023-02-01T01:27:17;6.30;99.90
9808;DHT22;4943;52.550;13.462;2023-02-01T01:29:49;6.30;99.90
9808;DHT22;4943;52.550;13.462;2023-02-01T01:32:17;6.30;99.90
9808;DHT22;4943;52.550;13.462;2023-02-01T01:34:45;6.30;99.90
9808;DHT22;4943;52.550;13.462;2023-02-01T01:37:13;6.30;99.90
9808;DHT22;4943;52.550;13.462;2023-02-01T01:39:41;6.40;99.90
9808;DHT22;4943;52.550;13.462;2023-02-01T01:42:11;6.30;99.90
9808;DHT22;4943;52.550;13.462;2023-02-01T01:45:02;6.30;99.90
9808;DHT22;4943;52.550;13.462;2023-02-01T01:47:34;6.30;99.90
9808;DHT22;4943;52.550;13.462;2023-02-01T01:50:06;6.30;99.90
9808;DHT22;4943;52.550;13.462;2023-02-01T01:52:35;6.20;99.90
9808;DHT22;4943;52.550;13.462;2023-02-01T01:55:05;6.20;99.90
9808;DHT22;4943;52.550;13.462;2023-02-01T01:57:37;6.20;99.90
9808;DHT22;4943;52.550;13.462;2023-02-01T02:00:10;6.20;99.90
9808;DHT22;4943;52.550;13.462;2023-02-01T02:02:41;6.20;99.90
9808;DHT22;4943;52.550;13.462;2023-02-01T02:05:10;6.20;99.90
9808;DHT22;4943;52.550;13.462;2023-02-01T02:07:42;6.20;99.90
9808;DHT22;4943;52.550;13.462;2023-02-01T02:10:13;6.20;99.90
9808;DHT22;4943;52.550;13.462;2023-02-01T02:12:44;6.30;99.90
9808;DHT22;4943;52.550;13.462;2023-02-01T02:15:15;6.30;99.90
9808;DHT22;4943;52.550;13.462;2023-02-01T02:17:51;6.30;99.90
9808;DHT22;4943;52.550;13.462;2023-02-01T02:20:48;6.30;99.90
9808;DHT22;4943;52.550;13.462;2023-02-01T02:27:00;6.20;99.90
9808;DHT22;4943;52.550;13.462;2023-02-01T02:29:57;6.20;99.90
9808;DHT22;4943;52.550;13.462;2023-02-01T02:32:57;6.20;99.90
9808;DHT22;4943;52.550;13.462;2023-02-01T02:35:34;6.20;99.90
9808;DHT22;4943;52.550;13.462;2023-02-01T02:38:13;6.20;99.90
9808;DHT22;4943;52.550;13.462;2023-02-01T02:40:49;6.20;99.90
9808;DHT22;4943;52.550;13.462;2023-02-01T02:43:21;6.20;99.90
9808;DHT22;4943;52.550;13.462;2023-02-01T02:46:12;6.20;99.90
9808;DHT22;4943;52.550;13.462;2023-02-01T02:49:07;6.20;99.90
9808;DHT22;4943;52.550;13.462;2023-02-01T02:51:42;6.20;99.90
9808;DHT22;4943;52.550;13.462;2023-02-01T02:54:31;6.20;99.90
9808;DHT22;4943;52.550;13.462;2023-02-01T02:57:16;6.20;99.90
9808;DHT22;4943;52.550;13.462;2023-02-01T03:00:06;6.30;99.90
9808;DHT22;4943;52.550;13.462;2023-02-01T03:02:52;6.30;99.90
9808;DHT22;4943;52.550;13.462;2023-02-01T03:05:41;6.20;99.90
9808;DHT22;4943;52.550;13.462;2023-02-01T03:08:13;6.30;99.90
9808;DHT22;4943;52.550;13.462;2023-02-01T03:10:47;6.30;99.90
9808;DHT22;4943;52.550;13.462;2023-02-01T03:13:23;6.30;99.90
9808;DHT22;4943;52.550;13.462;2023-02-01T03:15:56;6.30;99.90
9808;DHT22;4943;52.550;13.462;2023-02-01T03:18:30;6.30;99.90
9808;DHT22;4943;52.550;13.462;2023-02-01T03:21:03;6.30;99.90
9808;DHT22;4943;52.550;13.462;2023-02-01T03:23:36;6.30;99.90
9808;DHT22;4943;52.550;13.462;2023-02-01T03:26:08;6.30;99.90
9808;DHT22;4943;52.550;13.462;2023-02-01T03:28:44;6.30;99.90
9808;DHT22;4943;52.550;13.462;2023-02-01T03:31:16;6.30;99.90
9808;DHT22;4943;52.550;13.462;2023-02-01T03:33:44;6.30;99.90
9808;DHT22;4943;52.550;13.462;2023-02-01T03:36:18;6.30;99.90
9808;DHT22;4943;52.550;13.462;2023-02-01T03:38:55;6.30;99.90
9808;DHT22;4943;52.550;13.462;2023-02-01T03:41:31;6.30;99.90
9808;DHT22;4943;52.550;13.462;2023-02-01T03:44:07;6.30;99.90
9808;DHT22;4943;52.550;13.462;2023-02-01T03:46:41;6.40;99.90
9808;DHT22;4943;52.550;13.462;2023-02-01T03:49:13;6.40;99.90
9808;DHT22;4943;52.550;13.462;2023-02-01T03:51:44;6.40;99.90
9808;DHT22;4943;52.550;13.462;2023-02-01T03:54:15;6.40;99.90
9808;DHT22;4943;52.550;13.462;2023-02-01T03:56:45;6.40;99.90
9808;DHT22;4943;52.550;13.462;2023-02-01T03:59:14;6.40;99.90
9808;DHT22;4943;52.550;13.462;2023-02-01T04:01:42;6.40;99.90
9808;DHT22;4943;52.550;13.462;2023-02-01T04:04:10;6.40;99.90
9808;DHT22;4943;52.550;13.462;2023-02-01T04:06:46;6.40;99.90
9808;DHT22;4943;52.550;13.462;2023-02-01T04:09:16;6.40;99.90
9808;DHT22;4943;52.550;13.462;2023-02-01T04:11:44;6.40;99.90
9808;DHT22;4943;52.550;13.462;2023-02-01T04:14:12;6.40;99.90
9808;DHT22;4943;52.550;13.462;2023-02-01T04:16:40;6.50;99.90
9808;DHT22;4943;52.550;13.462;2023-02-01T04:19:09;6.50;99.90
9808;DHT22;4943;52.550;13.462;2023-02-01T04:21:38;6.50;99.90
9808;DHT22;4943;52.550;13.462;2023-02-01T04:24:06;6.60;99.90
9808;DHT22;4943;52.550;13.462;2023-02-01T04:26:36;6.60;99.90
9808;DHT22;4943;52.550;13.462;2023-02-01T04:29:04;6.60;99.90
9808;DHT22;4943;52.550;13.462;2023-02-01T04:31:32;6.60;99.90
9808;DHT22;4943;52.550;13.462;2023-02-01T04:34:02;6.70;99.90
9808;DHT22;4943;52.550;13.462;2023-02-01T04:36:30;6.70;99.90
9808;DHT22;4943;52.550;13.462;2023-02-01T04:38:58;6.70;99.90
9808;DHT22;4943;52.550;13.462;2023-02-01T04:41:26;6.70;99.90
9808;DHT22;4943;52.550;13.462;2023-02-01T04:43:55;6.70;99.90
9808;DHT22;4943;52.550;13.462;2023-02-01T04:46:23;6.80;99.90
9808;DHT22;4943;52.550;13.462;2023-02-01T04:48:51;6.80;99.90
9808;DHT22;4943;52.550;13.462;2023-02-01T04:51:19;6.80;99.90
9808;DHT22;4943;52.550;13.462;2023-02-01T04:53:48;6.90;99.90
9808;DHT22;4943;52.550;13.462;2023-02-01T04:56:16;6.90;99.90
9808;DHT22;4943;52.550;13.462;2023-02-01T04:58:44;6.90;99.90
9808;DHT22;4943;52.550;13.462;2023-02-01T05:01:13;7.00;99.90
9808;DHT22;4943;52.550;13.462;2023-02-01T05:03:41;7.00;99.90
9808;DHT22;4943;52.550;13.462;2023-02-01T05:06:09;7.10;99.90
9808;DHT22;4943;52.550;13.462;2023-02-01T05:08:38;7.10;99.90
9808;DHT22;4943;52.550;13.462;2023-02-01T05:11:06;7.10;99.90
9808;DHT22;4943;52.550;13.462;2023-02-01T05:13:54;7.20;99.90
9808;DHT22;4943;52.550;13.462;2023-02-01T05:16:22;7.20;99.90
9808;DHT22;4943;52.550;13.462;2023-02-01T05:18:50;7.20;99.90
9808;DHT22;4943;52.550;13.462;2023-02-01T05:21:18;7.20;99.90
9808;DHT22;4943;52.550;13.462;2023-02-01T05:23:46;7.20;99.90
9808;DHT22;4943;52.550;13.462;2023-02-01T05:26:31;7.30;99.90
9808;DHT22;4943;52.550;13.462;2023-02-01T05:29:00;7.30;99.90
9808;DHT22;4943;52.550;13.462;2023-02-01T05:31:29;7.30;99.90
9808;DHT22;4943;52.550;13.462;2023-02-01T05:33:57;7.30;99.90
9808;DHT22;4943;52.550;13.462;2023-02-01T05:36:25;7.30;99.90
9808;DHT22;4943;52.550;13.462;2023-02-01T05:38:53;7.30;99.90
9808;DHT22;4943;52.550;13.462;2023-02-01T05:41:21;7.30;99.90
9808;DHT22;4943;52.550;13.462;2023-02-01T05:43:49;7.30;99.90
9808;DHT22;4943;52.550;13.462;2023-02-01T05:46:17;7.30;99.90
9808;DHT22;4943;52.550;13.462;2023-02-01T05:48:47;7.40;99.90
9808;DHT22;4943;52.550;13.462;2023-02-01T05:51:15;7.40;99.90
9808;DHT22;4943;52.550;13.462;2023-02-01T05:53:43;7.40;99.90
9808;DHT22;4943;52.550;13.462;2023-02-01T05:56:11;7.40;99.90
9808;DHT22;4943;52.550;13.462;2023-02-01T05:58:39;7.40;99.90
9808;DHT22;4943;52.550;13.462;2023-02-01T06:01:07;7.40;99.90
9808;DHT22;4943;52.550;13.462;2023-02-01T06:03:35;7.40;99.90
9808;DHT22;4943;52.550;13.462;2023-02-01T06:06:05;7.40;99.90
9808;DHT22;4943;52.550;13.462;2023-02-01T06:08:33;7.40;99.90
9808;DHT22;4943;52.550;13.462;2023-02-01T06:11:02;7.40;99.90
9808;DHT22;4943;52.550;13.462;2023-02-01T06:13:31;7.40;99.90
9808;DHT22;4943;52.550;13.462;2023-02-01T06:16:01;7.40;99.90
9808;DHT22;4943;52.550;13.462;2023-02-01T06:18:30;7.40;99.90
9808;DHT22;4943;52.550;13.462;2023-02-01T06:20:58;7.40;99.90
9808;DHT22;4943;52.550;13.462;2023-02-01T06:23:29;7.50;99.90
9808;DHT22;4943;52.550;13.462;2023-02-01T06:25:59;7.50;99.90
9808;DHT22;4943;52.550;13.462;2023-02-01T06:28:27;7.50;99.90
9808;DHT22;4943;52.550;13.462;2023-02-01T06:30:56;7.50;99.90
9808;DHT22;4943;52.550;13.462;2023-02-01T06:33:25;7.40;99.90
9808;DHT22;4943;52.550;13.462;2023-02-01T06:36:04;7.40;99.90
9808;DHT22;4943;52.550;13.462;2023-02-01T06:38:35;7.40;99.90
9808;DHT22;4943;52.550;13.462;2023-02-01T06:41:03;7.50;99.90
9808;DHT22;4943;52.550;13.462;2023-02-01T06:43:32;7.50;99.90
9808;DHT22;4943;52.550;13.462;2023-02-01T06:46:01;7.50;99.90
9808;DHT22;4943;52.550;13.462;2023-02-01T06:48:29;7.40;99.90
9808;DHT22;4943;52.550;13.462;2023-02-01T06:50:58;7.40;99.90
9808;DHT22;4943;52.550;13.462;2023-02-01T06:53:26;7.40;99.90
9808;DHT22;4943;52.550;13.462;2023-02-01T06:55:57;7.40;99.90
9808;DHT22;4943;52.550;13.462;2023-02-01T06:58:28;7.40;99.90
9808;DHT22;4943;52.550;13.462;2023-02-01T07:00:56;7.40;99.90
9808;DHT22;4943;52.550;13.462;2023-02-01T07:03:24;7.50;99.90
9808;DHT22;4943;52.550;13.462;2023-02-01T07:05:55;7.50;99.90
9808;DHT22;4943;52.550;13.462;2023-02-01T07:08:25;7.50;99.90
9808;DHT22;4943;52.550;13.462;2023-02-01T07:10:55;7.50;99.90
9808;DHT22;4943;52.550;13.462;2023-02-01T07:13:23;7.60;99.90
9808;DHT22;4943;52.550;13.462;2023-02-01T07:15:51;7.60;99.90
9808;DHT22;4943;52.550;13.462;2023-02-01T07:18:19;7.60;99.90
9808;DHT22;4943;52.550;13.462;2023-02-01T07:20:50;7.60;99.90
9808;DHT22;4943;52.550;13.462;2023-02-01T07:23:18;7.60;99.90
9808;DHT22;4943;52.550;13.462;2023-02-01T07:25:46;7.60;99.90
9808;DHT22;4943;52.550;13.462;2023-02-01T07:28:16;7.60;99.90
9808;DHT22;4943;52.550;13.462;2023-02-01T07:30:44;7.60;99.90
9808;DHT22;4943;52.550;13.462;2023-02-01T07:33:18;7.50;99.90
9808;DHT22;4943;52.550;13.462;2023-02-01T07:35:47;7.50;99.90
9808;DHT22;4943;52.550;13.462;2023-02-01T07:38:15;7.50;99.90
9808;DHT22;4943;52.550;13.462;2023-02-01T07:40:43;7.60;99.90
9808;DHT22;4943;52.550;13.462;2023-02-01T07:43:11;7.60;99.90
9808;DHT22;4943;52.550;13.462;2023-02-01T07:45:41;7.70;99.90
9808;DHT22;4943;52.550;13.462;2023-02-01T07:48:09;7.70;99.90
9808;DHT22;4943;52.550;13.462;2023-02-01T07:50:37;7.70;99.90
9808;DHT22;4943;52.550;13.462;2023-02-01T07:53:05;7.80;99.90
9808;DHT22;4943;52.550;13.462;2023-02-01T07:55:32;7.80;99.90
9808;DHT22;4943;52.550;13.462;2023-02-01T07:58:01;7.80;99.90
9808;DHT22;4943;52.550;13.462;2023-02-01T08:00:29;7.70;99.90
9808;DHT22;4943;52.550;13.462;2023-02-01T08:03:16;7.70;99.90
9808;DHT22;4943;52.550;13.462;2023-02-01T08:05:44;7.60;99.90
9808;DHT22;4943;52.550;13.462;2023-02-01T08:08:12;7.50;99.90
9808;DHT22;4943;52.550;13.462;2023-02-01T08:10:40;7.50;99.90
9808;DHT22;4943;52.550;13.462;2023-02-01T08:13:08;7.40;99.90
9808;DHT22;4943;52.550;13.462;2023-02-01T08:15:37;7.30;99.90
9808;DHT22;4943;52.550;13.462;2023-02-01T08:18:05;7.30;99.90
9808;DHT22;4943;52.550;13.462;2023-02-01T08:20:34;7.20;99.90
9808;DHT22;4943;52.550;13.462;2023-02-01T08:23:08;7.20;99.90
9808;DHT22;4943;52.550;13.462;2023-02-01T08:25:36;7.20;99.90
9808;DHT22;4943;52.550;13.462;2023-02-01T08:28:05;7.20;99.90
9808;DHT22;4943;52.550;13.462;2023-02-01T08:30:33;7.10;99.90
9808;DHT22;4943;52.550;13.462;2023-02-01T08:33:01;7.10;99.90
9808;DHT22;4943;52.550;13.462;2023-02-01T08:35:29;7.10;99.90
9808;DHT22;4943;52.550;13.462;2023-02-01T08:38:11;7.10;99.90
9808;DHT22;4943;52.550;13.462;2023-02-01T08:40:39;7.10;99.90
9808;DHT22;4943;52.550;13.462;2023-02-01T08:43:08;7.00;99.90
9808;DHT22;4943;52.550;13.462;2023-02-01T08:45:36;6.90;99.90
9808;DHT22;4943;52.550;13.462;2023-02-01T08:48:04;6.80;99.90
9808;DHT22;4943;52.550;13.462;2023-02-01T08:50:33;6.80;99.90
9808;DHT22;4943;52.550;13.462;2023-02-01T08:53:01;6.80;99.90
9808;DHT22;4943;52.550;13.462;2023-02-01T08:55:30;6.80;99.90
9808;DHT22;4943;52.550;13.462;2023-02-01T08:57:58;6.80;99.90
9808;DHT22;4943;52.550;13.462;2023-02-01T09:00:26;6.70;99.90
9808;DHT22;4943;52.550;13.462;2023-02-01T09:02:55;6.70;99.90
9808;DHT22;4943;52.550;13.462;2023-02-01T09:05:23;6.60;99.90
9808;DHT22;4943;52.550;13.462;2023-02-01T09:08:03;6.60;99.90
9808;DHT22;4943;52.550;13.462;2023-02-01T09:10:33;6.70;99.90
9808;DHT22;4943;52.550;13.462;2023-02-01T09:13:02;6.70;99.90
9808;DHT22;4943;52.550;13.462;2023-02-01T09:15:30;6.70;99.90
9808;DHT22;4943;52.550;13.462;2023-02-01T09:17:58;6.80;99.90
9808;DHT22;4943;52.550;13.462;2023-02-01T09:20:26;6.80;99.90
9808;DHT22;4943;52.550;13.462;2023-02-01T09:22:55;6.80;99.90
9808;DHT22;4943;52.550;13.462;2023-02-01T09:25:23;6.80;99.90
9808;DHT22;4943;52.550;13.462;2023-02-01T09:27:53;6.80;99.90
9808;DHT22;4943;52.550;13.462;2023-02-01T09:30:21;7.00;99.90
9808;DHT22;4943;52.550;13.462;2023-02-01T09:32:50;7.00;99.90
9808;DHT22;4943;52.550;13.462;2023-02-01T09:35:18;7.10;99.90
9808;DHT22;4943;52.550;13.462;2023-02-01T09:37:46;7.10;99.90
9808;DHT22;4943;52.550;13.462;2023-02-01T09:40:14;7.10;99.90
9808;DHT22;4943;52.550;13.462;2023-02-01T09:43:03;7.10;99.90
9808;DHT22;4943;52.550;13.462;2023-02-01T09:45:39;7.10;99.90
9808;DHT22;4943;52.550;13.462;2023-02-01T09:48:13;7.10;99.90
9808;DHT22;4943;52.550;13.462;2023-02-01T09:50:44;7.10;99.90
9808;DHT22;4943;52.550;13.462;2023-02-01T09:53:18;7.10;99.90
9808;DHT22;4943;52.550;13.462;2023-02-01T09:55:49;7.10;99.90
9808;DHT22;4943;52.550;13.462;2023-02-01T09:58:24;7.10;99.90
9808;DHT22;4943;52.550;13.462;2023-02-01T10:00:56;7.10;99.90
9808;DHT22;4943;52.550;13.462;2023-02-01T10:03:29;7.10;99.90
9808;DHT22;4943;52.550;13.462;2023-02-01T10:06:14;7.10;99.90
9808;DHT22;4943;52.550;13.462;2023-02-01T10:11:54;7.20;99.90
9808;DHT22;4943;52.550;13.462;2023-02-01T10:14:43;7.30;99.90
9808;DHT22;4943;52.550;13.462;2023-02-01T10:17:20;7.30;99.90
9808;DHT22;4943;52.550;13.462;2023-02-01T10:19:58;7.30;99.90
9808;DHT22;4943;52.550;13.462;2023-02-01T10:22:39;7.30;99.90
9808;DHT22;4943;52.550;13.462;2023-02-01T10:25:34;7.20;99.90
9808;DHT22;4943;52.550;13.462;2023-02-01T10:28:04;7.10;99.90
9808;DHT22;4943;52.550;13.462;2023-02-01T10:30:40;7.10;99.90
9808;DHT22;4943;52.550;13.462;2023-02-01T10:33:16;7.10;99.90
9808;DHT22;4943;52.550;13.462;2023-02-01T10:35:45;7.20;99.90
9808;DHT22;4943;52.550;13.462;2023-02-01T10:38:21;7.30;99.90
9808;DHT22;4943;52.550;13.462;2023-02-01T10:40:53;7.30;99.90
9808;DHT22;4943;52.550;13.462;2023-02-01T10:43:22;7.40;99.90
9808;DHT22;4943;52.550;13.462;2023-02-01T10:45:52;7.50;99.90
9808;DHT22;4943;52.550;13.462;2023-02-01T10:48:20;7.60;99.90
9808;DHT22;4943;52.550;13.462;2023-02-01T10:50:53;7.70;99.90
9808;DHT22;4943;52.550;13.462;2023-02-01T10:53:24;7.70;99.90
9808;DHT22;4943;52.550;13.462;2023-02-01T10:55:55;7.80;99.90
9808;DHT22;4943;52.550;13.462;2023-02-01T10:58:27;7.70;99.90
9808;DHT22;4943;52.550;13.462;2023-02-01T11:01:02;7.70;99.90
9808;DHT22;4943;52.550;13.462;2023-02-01T11:03:37;7.70;99.90
9808;DHT22;4943;52.550;13.462;2023-02-01T11:08:55;7.50;99.90
9808;DHT22;4943;52.550;13.462;2023-02-01T11:11:25;7.50;99.90
9808;DHT22;4943;52.550;13.462;2023-02-01T11:13:55;7.60;99.90
9808;DHT22;4943;52.550;13.462;2023-02-01T11:16:33;7.70;99.90
9808;DHT22;4943;52.550;13.462;2023-02-01T11:19:01;7.70;99.90
9808;DHT22;4943;52.550;13.462;2023-02-01T11:21:29;7.80;99.90
9808;DHT22;4943;52.550;13.462;2023-02-01T11:24:01;7.90;99.90
9808;DHT22;4943;52.550;13.462;2023-02-01T11:26:31;8.00;99.90
9808;DHT22;4943;52.550;13.462;2023-02-01T11:29:02;8.10;99.90
9808;DHT22;4943;52.550;13.462;2023-02-01T11:31:34;8.20;99.90
9808;DHT22;4943;52.550;13.462;2023-02-01T11:34:08;8.30;99.90
9808;DHT22;4943;52.550;13.462;2023-02-01T11:36:37;8.50;99.90
9808;DHT22;4943;52.550;13.462;2023-02-01T11:39:19;8.60;99.90
9808;DHT22;4943;52.550;13.462;2023-02-01T11:42:05;8.70;99.90
9808;DHT22;4943;52.550;13.462;2023-02-01T11:44:42;8.80;99.90
9808;DHT22;4943;52.550;13.462;2023-02-01T11:47:26;8.90;99.90
9808;DHT22;4943;52.550;13.462;2023-02-01T11:49:55;8.90;99.90
9808;DHT22;4943;52.550;13.462;2023-02-01T11:52:41;8.90;99.90
9808;DHT22;4943;52.550;13.462;2023-02-01T11:55:30;8.90;99.90
9808;DHT22;4943;52.550;13.462;2023-02-01T11:58:12;8.90;99.90
9808;DHT22;4943;52.550;13.462;2023-02-01T12:01:01;8.90;99.90
9808;DHT22;4943;52.550;13.462;2023-02-01T12:04:03;9.00;99.90
9808;DHT22;4943;52.550;13.462;2023-02-01T12:06:46;9.00;99.90
9808;DHT22;4943;52.550;13.462;2023-02-01T12:09:32;9.00;99.90
9808;DHT22;4943;52.550;13.462;2023-02-01T12:12:12;9.10;99.90
9808;DHT22;4943;52.550;13.462;2023-02-01T12:14:58;9.20;99.90
9808;DHT22;4943;52.550;13.462;2023-02-01T12:17:59;9.40;99.90
9808;DHT22;4943;52.550;13.462;2023-02-01T12:20:54;9.50;99.90
9808;DHT22;4943;52.550;13.462;2023-02-01T12:23:38;9.50;99.90
9808;DHT22;4943;52.550;13.462;2023-02-01T12:26:45;9.50;99.90
9808;DHT22;4943;52.550;13.462;2023-02-01T12:29:34;9.40;99.90
9808;DHT22;4943;52.550;13.462;2023-02-01T12:35:17;9.30;99.90
9808;DHT22;4943;52.550;13.462;2023-02-01T12:38:00;9.30;99.90
9808;DHT22;4943;52.550;13.462;2023-02-01T12:40:43;9.20;99.90
9808;DHT22;4943;52.550;13.462;2023-02-01T12:43:17;9.20;99.90
9808;DHT22;4943;52.550;13.462;2023-02-01T12:45:53;9.10;99.90
9808;DHT22;4943;52.550;13.462;2023-02-01T12:48:29;9.00;99.90
9808;DHT22;4943;52.550;13.462;2023-02-01T12:51:02;9.00;99.90
9808;DHT22;4943;52.550;13.462;2023-02-01T12:53:43;8.90;99.90
9808;DHT22;4943;52.550;13.462;2023-02-01T12:56:18;8.90;99.90
9808;DHT22;4943;52.550;13.462;2023-02-01T12:58:50;8.90;99.90
9808;DHT22;4943;52.550;13.462;2023-02-01T13:01:27;8.90;99.90
9808;DHT22;4943;52.550;13.462;2023-02-01T13:04:02;8.90;99.90
9808;DHT22;4943;52.550;13.462;2023-02-01T13:06:36;8.90;99.90
9808;DHT22;4943;52.550;13.462;2023-02-01T13:09:13;8.90;99.90
9808;DHT22;4943;52.550;13.462;2023-02-01T13:11:44;8.90;99.90
9808;DHT22;4943;52.550;13.462;2023-02-01T13:14:23;8.90;99.90
9808;DHT22;4943;52.550;13.462;2023-02-01T13:16:57;8.90;99.90
9808;DHT22;4943;52.550;13.462;2023-02-01T13:19:40;8.70;99.90
9808;DHT22;4943;52.550;13.462;2023-02-01T13:22:12;8.40;99.90
9808;DHT22;4943;52.550;13.462;2023-02-01T13:24:47;8.00;99.90
9808;DHT22;4943;52.550;13.462;2023-02-01T13:27:18;7.70;99.90
9808;DHT22;4943;52.550;13.462;2023-02-01T13:29:57;7.60;99.90
9808;DHT22;4943;52.550;13.462;2023-02-01T13:32:56;7.50;99.90
9808;DHT22;4943;52.550;13.462;2023-02-01T13:36:17;7.50;99.90
9808;DHT22;4943;52.550;13.462;2023-02-01T13:39:12;7.60;99.90
9808;DHT22;4943;52.550;13.462;2023-02-01T13:41:52;7.70;99.90
9808;DHT22;4943;52.550;13.462;2023-02-01T13:44:36;7.80;99.90
9808;DHT22;4943;52.550;13.462;2023-02-01T13:47:21;7.90;99.90
9808;DHT22;4943;52.550;13.462;2023-02-01T13:49:51;8.00;99.90
9808;DHT22;4943;52.550;13.462;2023-02-01T13:52:32;8.00;99.90
9808;DHT22;4943;52.550;13.462;2023-02-01T13:55:15;8.10;99.90
9808;DHT22;4943;52.550;13.462;2023-02-01T13:57:45;8.20;99.90
9808;DHT22;4943;52.550;13.462;2023-02-01T14:00:24;8.30;99.90
9808;DHT22;4943;52.550;13.462;2023-02-01T14:03:18;8.40;99.90
9808;DHT22;4943;52.550;13.462;2023-02-01T14:05:59;8.40;99.90
9808;DHT22;4943;52.550;13.462;2023-02-01T14:11:49;8.50;99.90
9808;DHT22;4943;52.550;13.462;2023-02-01T14:14:43;8.40;99.90
9808;DHT22;4943;52.550;13.462;2023-02-01T14:17:39;8.50;99.90
9808;DHT22;4943;52.550;13.462;2023-02-01T14:23:28;8.50;99.90
9808;DHT22;4943;52.550;13.462;2023-02-01T14:26:07;8.40;99.90
9808;DHT22;4943;52.550;13.462;2023-02-01T14:28:40;8.30;99.90
9808;DHT22;4943;52.550;13.462;2023-02-01T14:34:18;8.30;99.90
9808;DHT22;4943;52.550;13.462;2023-02-01T14:36:50;8.30;99.90
9808;DHT22;4943;52.550;13.462;2023-02-01T14:39:23;8.30;99.90
9808;DHT22;4943;52.550;13.462;2023-02-01T14:41:55;8.30;99.90
9808;DHT22;4943;52.550;13.462;2023-02-01T14:44:34;8.40;99.90
9808;DHT22;4943;52.550;13.462;2023-02-01T14:47:28;8.50;99.90
9808;DHT22;4943;52.550;13.462;2023-02-01T14:50:27;8.50;99.90
9808;DHT22;4943;52.550;13.462;2023-02-01T14:53:20;8.60;99.90
9808;DHT22;4943;52.550;13.462;2023-02-01T14:55:52;8.60;99.90
9808;DHT22;4943;52.550;13.462;2023-02-01T14:58:34;8.60;99.90
9808;DHT22;4943;52.550;13.462;2023-02-01T15:01:05;8.60;99.90
9808;DHT22;4943;52.550;13.462;2023-02-01T15:03:44;8.60;99.90
9808;DHT22;4943;52.550;13.462;2023-02-01T15:06:26;8.60;99.90
9808;DHT22;4943;52.550;13.462;2023-02-01T15:08:58;8.60;99.90
9808;DHT22;4943;52.550;13.462;2023-02-01T15:11:27;8.70;99.90
9808;DHT22;4943;52.550;13.462;2023-02-01T15:13:55;8.70;99.90
9808;DHT22;4943;52.550;13.462;2023-02-01T15:16:25;8.70;99.90
9808;DHT22;4943;52.550;13.462;2023-02-01T15:19:12;8.60;99.90
9808;DHT22;4943;52.550;13.462;2023-02-01T15:21:46;8.60;99.90
9808;DHT22;4943;52.550;13.462;2023-02-01T15:24:20;8.50;99.90
9808;DHT22;4943;52.550;13.462;2023-02-01T15:26:48;8.40;99.90
9808;DHT22;4943;52.550;13.462;2023-02-01T15:29:17;8.40;99.90
9808;DHT22;4943;52.550;13.462;2023-02-01T15:31:47;8.30;99.90
9808;DHT22;4943;52.550;13.462;2023-02-01T15:34:18;8.20;99.90
9808;DHT22;4943;52.550;13.462;2023-02-01T15:36:47;8.10;99.90
9808;DHT22;4943;52.550;13.462;2023-02-01T15:39:29;8.00;99.90
9808;DHT22;4943;52.550;13.462;2023-02-01T15:42:01;8.00;99.90
9808;DHT22;4943;52.550;13.462;2023-02-01T15:44:39;7.90;99.90
9808;DHT22;4943;52.550;13.462;2023-02-01T15:47:14;7.90;99.90
9808;DHT22;4943;52.550;13.462;2023-02-01T15:49:49;7.90;99.90
9808;DHT22;4943;52.550;13.462;2023-02-01T15:52:24;7.80;99.90
9808;DHT22;4943;52.550;13.462;2023-02-01T15:54:56;7.70;99.90
9808;DHT22;4943;52.550;13.462;2023-02-01T15:57:28;7.60;99.90
9808;DHT22;4943;52.550;13.462;2023-02-01T16:00:00;7.60;99.90
9808;DHT22;4943;52.550;13.462;2023-02-01T16:02:34;7.50;99.90
9808;DHT22;4943;52.550;13.462;2023-02-01T16:05:27;7.40;99.90
9808;DHT22;4943;52.550;13.462;2023-02-01T16:07:59;7.20;99.90
9808;DHT22;4943;52.550;13.462;2023-02-01T16:10:30;7.10;99.90
9808;DHT22;4943;52.550;13.462;2023-02-01T16:12:59;6.90;99.90
9808;DHT22;4943;52.550;13.462;2023-02-01T16:15:27;6.80;99.90
9808;DHT22;4943;52.550;13.462;2023-02-01T16:17:56;6.70;99.90
9808;DHT22;4943;52.550;13.462;2023-02-01T16:20:25;6.60;99.90
9808;DHT22;4943;52.550;13.462;2023-02-01T16:22:54;6.60;99.90
9808;DHT22;4943;52.550;13.462;2023-02-01T16:25:22;6.50;99.90
9808;DHT22;4943;52.550;13.462;2023-02-01T16:27:52;6.50;99.90
9808;DHT22;4943;52.550;13.462;2023-02-01T16:30:20;6.50;99.90
9808;DHT22;4943;52.550;13.462;2023-02-01T16:32:52;6.50;99.90
9808;DHT22;4943;52.550;13.462;2023-02-01T16:35:23;6.50;99.90
9808;DHT22;4943;52.550;13.462;2023-02-01T16:37:54;6.50;99.90
9808;DHT22;4943;52.550;13.462;2023-02-01T16:40:22;6.40;99.90
9808;DHT22;4943;52.550;13.462;2023-02-01T16:42:53;6.40;99.90
9808;DHT22;4943;52.550;13.462;2023-02-01T16:45:22;6.40;99.90
9808;DHT22;4943;52.550;13.462;2023-02-01T16:47:53;6.40;99.90
9808;DHT22;4943;52.550;13.462;2023-02-01T16:50:23;6.30;99.90
9808;DHT22;4943;52.550;13.462;2023-02-01T16:52:53;6.30;99.90
9808;DHT22;4943;52.550;13.462;2023-02-01T16:55:21;6.20;99.90
9808;DHT22;4943;52.550;13.462;2023-02-01T16:57:50;6.20;99.90
9808;DHT22;4943;52.550;13.462;2023-02-01T17:00:19;6.20;99.90
9808;DHT22;4943;52.550;13.462;2023-02-01T17:02:51;6.20;99.90